sensor_id;sensor_type;location;lat;lon;timestamp;pressure;altitude;pressure_sealevel;temperature;humidity
48800;BME280;34611;47.964;7.982;2023-05-23T00:06:07;96713.00;;;13.25;64.31
48800;BME280;34611;47.964;7.982;2023-05-23T00:13:07;96715.63;;;13.25;64.32
48800;BME280;34611;47.964;7.982;2023-05-23T00:20:08;96723.47;;;13.25;64.26
48800;BME280;34611;47.964;7.982;2023-05-23T00:27:10;96712.19;;;13.24;64.45
48800;BME280;34611;47.964;7.982;2023-05-23T00:34:11;96703.56;;;13.24;64.37
48800;BME280;34611;47.964;7.982;2023-05-23T00:41:11;96714.00;;;13.24;64.34
48800;BME280;34611;47.964;7.982;2023-05-23T00:48:11;96712.19;;;13.24;64.50
48800;BME280;34611;47.964;7.982;2023-05-23T00:55:12;96702.75;;;13.23;64.37
48800;BME280;34611;47.964;7.982;2023-05-23T01:02:13;96715.63;;;13.25;64.51
48800;BME280;34611;47.964;7.982;2023-05-23T01:09:16;96716.63;;;13.24;64.46
48800;BME280;34611;47.964;7.982;2023-05-23T01:30:56;96720.03;;;13.24;64.45
48800;BME280;34611;47.964;7.982;2023-05-23T01:37:57;96714.81;;;13.24;64.60
48800;BME280;34611;47.964;7.982;2023-05-23T01:44:57;96709.59;;;13.24;64.47
48800;BME280;34611;47.964;7.982;2023-05-23T01:51:59;96722.66;;;13.24;64.43
48800;BME280;34611;47.964;7.982;2023-05-23T01:59:01;96722.66;;;13.24;64.46
48800;BME280;34611;47.964;7.982;2023-05-23T02:06:02;96717.41;;;13.24;64.62
48800;BME280;34611;47.964;7.982;2023-05-23T02:13:02;96721.84;;;13.24;64.40
48800;BME280;34611;47.964;7.982;2023-05-23T02:20:03;96722.66;;;13.24;64.68
48800;BME280;34611;47.964;7.982;2023-05-23T02:27:04;96712.19;;;13.24;64.35
48800;BME280;34611;47.964;7.982;2023-05-23T02:34:04;96711.38;;;13.24;64.49
48800;BME280;34611;47.964;7.982;2023-05-23T02:41:05;96712.19;;;13.24;64.53
48800;BME280;34611;47.964;7.982;2023-05-23T02:48:06;96726.91;;;13.25;64.65
48800;BME280;34611;47.964;7.982;2023-05-23T02:55:06;96721.03;;;13.23;64.65
48800;BME280;34611;47.964;7.982;2023-05-23T03:02:12;96726.25;;;13.23;64.75
48800;BME280;34611;47.964;7.982;2023-05-23T03:09:13;96723.63;;;13.23;64.74
48800;BME280;34611;47.964;7.982;2023-05-23T03:16:14;96722.66;;;13.24;64.54
48800;BME280;34611;47.964;7.982;2023-05-23T03:23:14;96712.34;;;13.23;64.58
48800;BME280;34611;47.964;7.982;2023-05-23T03:30:14;96716.63;;;13.24;64.67
48800;BME280;34611;47.964;7.982;2023-05-23T03:37:15;96712.19;;;13.24;64.61
48800;BME280;34611;47.964;7.982;2023-05-23T03:44:15;96722.66;;;13.24;64.60
48800;BME280;34611;47.964;7.982;2023-05-23T03:51:15;96733.09;;;13.24;64.72
48800;BME280;34611;47.964;7.982;2023-05-23T03:58:16;96726.25;;;13.23;64.74
48800;BME280;34611;47.964;7.982;2023-05-23T04:05:19;96726.06;;;13.25;64.65
48800;BME280;34611;47.964;7.982;2023-05-23T04:12:21;96731.28;;;13.25;64.69
48800;BME280;34611;47.964;7.982;2023-05-23T04:19:21;96739.13;;;13.25;64.69
48800;BME280;34611;47.964;7.982;2023-05-23T04:26:24;96747.94;;;13.24;64.67
48800;BME280;34611;47.964;7.982;2023-05-23T04:33:26;96740.91;;;13.24;64.70
48800;BME280;34611;47.964;7.982;2023-05-23T04:40:27;96748.75;;;13.24;64.82
48800;BME280;34611;47.964;7.982;2023-05-23T04:47:50;96754.94;;;13.23;64.71
48800;BME280;34611;47.964;7.982;2023-05-23T04:55:06;96768.81;;;13.24;64.72
48800;BME280;34611;47.964;7.982;2023-05-23T05:02:09;96780.06;;;13.24;64.73
48800;BME280;34611;47.964;7.982;2023-05-23T05:09:09;96775.66;;;13.25;64.82
48800;BME280;34611;47.964;7.982;2023-05-23T05:16:09;96759.19;;;13.24;64.90
48800;BME280;34611;47.964;7.982;2023-05-23T05:23:11;96767.84;;;13.25;64.86
48800;BME280;34611;47.964;7.982;2023-05-23T05:30:12;96769.63;;;13.24;64.84
48800;BME280;34611;47.964;7.982;2023-05-23T05:37:26;96768.81;;;13.24;64.74
48800;BME280;34611;47.964;7.982;2023-05-23T05:44:26;96772.25;;;13.24;64.86
48800;BME280;34611;47.964;7.982;2023-05-23T05:51:26;96783.66;;;13.23;64.63
48800;BME280;34611;47.964;7.982;2023-05-23T05:58:27;96780.06;;;13.24;64.76
48800;BME280;34611;47.964;7.982;2023-05-23T06:05:36;96784.47;;;13.24;64.98
48800;BME280;34611;47.964;7.982;2023-05-23T06:12:39;96807.00;;;13.25;64.79
48800;BME280;34611;47.964;7.982;2023-05-23T06:19:39;96800.94;;;13.24;65.00
48800;BME280;34611;47.964;7.982;2023-05-23T06:26:40;96806.19;;;13.24;64.80
48800;BME280;34611;47.964;7.982;2023-05-23T06:33:42;96807.00;;;13.25;64.90
48800;BME280;34611;47.964;7.982;2023-05-23T06:40:44;96805.38;;;13.24;64.96
48800;BME280;34611;47.964;7.982;2023-05-23T06:47:44;96812.22;;;13.25;64.94
48800;BME280;34611;47.964;7.982;2023-05-23T06:54:47;96811.41;;;13.24;64.85
48800;BME280;34611;47.964;7.982;2023-05-23T07:01:48;96814.81;;;13.25;64.88
48800;BME280;34611;47.964;7.982;2023-05-23T07:08:48;96821.03;;;13.24;65.00
48800;BME280;34611;47.964;7.982;2023-05-23T07:15:49;96822.66;;;13.25;64.85
48800;BME280;34611;47.964;7.982;2023-05-23T07:22:50;96821.84;;;13.24;64.99
48800;BME280;34611;47.964;7.982;2023-05-23T07:29:51;96825.44;;;13.23;65.02
48800;BME280;34611;47.964;7.982;2023-05-23T07:36:52;96829.53;;;13.26;64.82
48800;BME280;34611;47.964;7.982;2023-05-23T07:43:54;96827.06;;;13.24;64.81
48800;BME280;34611;47.964;7.982;2023-05-23T07:50:54;96823.50;;;13.25;64.91
48800;BME280;34611;47.964;7.982;2023-05-23T07:57:56;96821.84;;;13.24;64.85
48800;BME280;34611;47.964;7.982;2023-05-23T08:04:58;96814.00;;;13.24;65.05
48800;BME280;34611;47.964;7.982;2023-05-23T08:11:59;96820.88;;;13.25;64.91
48800;BME280;34611;47.964;7.982;2023-05-23T08:18:59;96826.09;;;13.25;65.09
48800;BME280;34611;47.964;7.982;2023-05-23T08:26:00;96829.66;;;13.24;65.02
48800;BME280;34611;47.964;7.982;2023-05-23T08:33:01;96836.56;;;13.25;64.94
48800;BME280;34611;47.964;7.982;2023-05-23T08:40:06;96838.31;;;13.25;65.15
48800;BME280;34611;47.964;7.982;2023-05-23T08:47:15;96844.38;;;13.25;64.90
48800;BME280;34611;47.964;7.982;2023-05-23T08:54:23;96839.16;;;13.25;64.96
48800;BME280;34611;47.964;7.982;2023-05-23T09:01:23;96850.41;;;13.26;64.94
48800;BME280;34611;47.964;7.982;2023-05-23T09:08:28;96852.22;;;13.25;64.92
48800;BME280;34611;47.964;7.982;2023-05-23T09:15:31;96855.63;;;13.26;65.08
48800;BME280;34611;47.964;7.982;2023-05-23T09:22:32;96857.44;;;13.25;64.91
48800;BME280;34611;47.964;7.982;2023-05-23T09:29:43;96859.06;;;13.26;64.94
48800;BME280;34611;47.964;7.982;2023-05-23T09:36:46;96860.84;;;13.26;65.09
48800;BME280;34611;47.964;7.982;2023-05-23T09:43:50;96858.25;;;13.26;65.20
48800;BME280;34611;47.964;7.982;2023-05-23T09:50:51;96851.22;;;13.26;65.11
48800;BME280;34611;47.964;7.982;2023-05-23T09:57:52;96854.81;;;13.25;65.14
48800;BME280;34611;47.964;7.982;2023-05-23T10:04:56;96851.38;;;13.25;65.14
48800;BME280;34611;47.964;7.982;2023-05-23T10:26:18;96855.63;;;13.26;65.11
48800;BME280;34611;47.964;7.982;2023-05-23T10:33:19;96850.41;;;13.26;65.11
48800;BME280;34611;47.964;7.982;2023-05-23T10:47:28;96839.16;;;13.25;65.19
48800;BME280;34611;47.964;7.982;2023-05-23T10:54:33;96828.72;;;13.25;65.04
48800;BME280;34611;47.964;7.982;2023-05-23T11:01:37;96828.72;;;13.25;65.19
48800;BME280;34611;47.964;7.982;2023-05-23T11:08:38;96823.50;;;13.25;65.19
48800;BME280;34611;47.964;7.982;2023-05-23T11:15:41;96828.72;;;13.25;65.10
48800;BME280;34611;47.964;7.982;2023-05-23T11:22:52;96832.16;;;13.26;65.06
48800;BME280;34611;47.964;7.982;2023-05-23T11:37:04;96840.78;;;13.26;65.25
48800;BME280;34611;47.964;7.982;2023-05-23T11:44:09;96832.97;;;13.26;65.22
48800;BME280;34611;47.964;7.982;2023-05-23T11:51:12;96831.16;;;13.27;65.16
48800;BME280;34611;47.964;7.982;2023-05-23T11:58:13;96827.72;;;13.26;65.23
48800;BME280;34611;47.964;7.982;2023-05-23T12:05:13;96825.94;;;13.27;65.22
48800;BME280;34611;47.964;7.982;2023-05-23T12:12:13;96825.13;;;13.26;65.12
48800;BME280;34611;47.964;7.982;2023-05-23T12:19:15;96822.50;;;13.26;65.19
48800;BME280;34611;47.964;7.982;2023-05-23T12:26:16;96822.50;;;13.26;65.17
48800;BME280;34611;47.964;7.982;2023-05-23T12:33:17;96817.28;;;13.26;65.09
48800;BME280;34611;47.964;7.982;2023-05-23T12:40:17;96811.13;;;13.27;64.95
48800;BME280;34611;47.964;7.982;2023-05-23T12:47:18;96817.28;;;13.26;65.23
48800;BME280;34611;47.964;7.982;2023-05-23T12:54:19;96825.13;;;13.26;65.12
48800;BME280;34611;47.964;7.982;2023-05-23T13:01:20;96818.09;;;13.27;65.20
48800;BME280;34611;47.964;7.982;2023-05-23T13:08:20;96819.91;;;13.26;65.33
48800;BME280;34611;47.964;7.982;2023-05-23T13:15:21;96808.66;;;13.26;65.22
48800;BME280;34611;47.964;7.982;2023-05-23T13:22:21;96800.69;;;13.27;65.19
48800;BME280;34611;47.964;7.982;2023-05-23T13:29:21;96805.06;;;13.27;65.15
48800;BME280;34611;47.964;7.982;2023-05-23T13:36:22;96810.13;;;13.28;65.26
48800;BME280;34611;47.964;7.982;2023-05-23T13:43:22;96799.84;;;13.27;65.37
48800;BME280;34611;47.964;7.982;2023-05-23T13:50:23;96796.41;;;13.26;65.42
48800;BME280;34611;47.964;7.982;2023-05-23T13:57:23;96800.69;;;13.27;65.22
48800;BME280;34611;47.964;7.982;2023-05-23T14:04:23;96796.28;;;13.28;65.24
48800;BME280;34611;47.964;7.982;2023-05-23T14:11:23;96788.44;;;13.28;65.16
48800;BME280;34611;47.964;7.982;2023-05-23T14:18:24;96785.00;;;13.27;65.40
48800;BME280;34611;47.964;7.982;2023-05-23T14:25:24;96784.16;;;13.27;65.26
48800;BME280;34611;47.964;7.982;2023-05-23T14:32:25;96789.25;;;13.28;65.24
48800;BME280;34611;47.964;7.982;2023-05-23T14:39:25;96795.47;;;13.27;65.28
48800;BME280;34611;47.964;7.982;2023-05-23T14:46:27;96784.03;;;13.28;65.22
48800;BME280;34611;47.964;7.982;2023-05-23T14:53:28;96779.78;;;13.27;65.31
48800;BME280;34611;47.964;7.982;2023-05-23T15:00:28;96782.41;;;13.27;65.29
48800;BME280;34611;47.964;7.982;2023-05-23T15:07:30;96787.63;;;13.27;65.39
48800;BME280;34611;47.964;7.982;2023-05-23T15:14:31;96779.78;;;13.27;65.42
48800;BME280;34611;47.964;7.982;2023-05-23T15:21:31;96779.78;;;13.27;65.29
48800;BME280;34611;47.964;7.982;2023-05-23T15:28:31;96784.03;;;13.28;65.60
48800;BME280;34611;47.964;7.982;2023-05-23T15:35:32;96786.63;;;13.28;65.46
48800;BME280;34611;47.964;7.982;2023-05-23T15:42:33;96784.03;;;13.28;65.29
48800;BME280;34611;47.964;7.982;2023-05-23T15:49:33;96798.88;;;13.28;65.47
48800;BME280;34611;47.964;7.982;2023-05-23T15:56:34;96810.13;;;13.28;65.51
48800;BME280;34611;47.964;7.982;2023-05-23T16:03:34;96810.13;;;13.28;65.34
48800;BME280;34611;47.964;7.982;2023-05-23T16:10:34;96802.31;;;13.28;65.44
48800;BME280;34611;47.964;7.982;2023-05-23T16:17:35;96803.16;;;13.29;65.47
48800;BME280;34611;47.964;7.982;2023-05-23T16:24:35;96797.09;;;13.28;65.37
48800;BME280;34611;47.964;7.982;2023-05-23T16:31:35;96794.47;;;13.28;65.36
48800;BME280;34611;47.964;7.982;2023-05-23T16:38:35;96791.88;;;13.28;65.56
48800;BME280;34611;47.964;7.982;2023-05-23T16:45:35;96798.78;;;13.29;65.37
48800;BME280;34611;47.964;7.982;2023-05-23T16:52:36;96791.88;;;13.28;65.58
48800;BME280;34611;47.964;7.982;2023-05-23T16:59:36;96798.19;;;13.35;65.77
48800;BME280;34611;47.964;7.982;2023-05-23T17:06:36;96796.97;;;13.30;65.57
48800;BME280;34611;47.964;7.982;2023-05-23T17:13:37;96795.31;;;13.29;65.58
48800;BME280;34611;47.964;7.982;2023-05-23T17:20:37;96805.63;;;13.30;65.59
48800;BME280;34611;47.964;7.982;2023-05-23T17:27:37;96807.28;;;13.31;65.59
48800;BME280;34611;47.964;7.982;2023-05-23T17:34:37;96797.78;;;13.30;65.52
48800;BME280;34611;47.964;7.982;2023-05-23T17:41:38;96796.16;;;13.29;65.65
48800;BME280;34611;47.964;7.982;2023-05-23T17:48:38;96799.59;;;13.30;65.66
48800;BME280;34611;47.964;7.982;2023-05-23T17:55:38;96805.63;;;13.30;65.70
48800;BME280;34611;47.964;7.982;2023-05-23T18:02:39;96809.22;;;13.29;65.66
48800;BME280;34611;47.964;7.982;2023-05-23T18:09:39;96824.88;;;13.29;65.50
48800;BME280;34611;47.964;7.982;2023-05-23T18:16:40;96822.09;;;13.31;65.59
48800;BME280;34611;47.964;7.982;2023-05-23T18:23:40;96833.53;;;13.30;65.55
48800;BME280;34611;47.964;7.982;2023-05-23T18:30:41;96838.75;;;13.30;65.75
48800;BME280;34611;47.964;7.982;2023-05-23T18:37:41;96835.31;;;13.29;65.48
48800;BME280;34611;47.964;7.982;2023-05-23T18:44:42;96842.16;;;13.30;65.54
48800;BME280;34611;47.964;7.982;2023-05-23T18:51:42;96844.78;;;13.30;65.56
48800;BME280;34611;47.964;7.982;2023-05-23T18:58:42;96848.38;;;13.29;65.66
48800;BME280;34611;47.964;7.982;2023-05-23T19:05:43;96848.38;;;13.29;65.73
48800;BME280;34611;47.964;7.982;2023-05-23T19:12:43;96861.44;;;13.29;65.70
48800;BME280;34611;47.964;7.982;2023-05-23T19:19:43;96878.72;;;13.30;65.71
48800;BME280;34611;47.964;7.982;2023-05-23T19:26:44;96877.09;;;13.29;65.61
48800;BME280;34611;47.964;7.982;2023-05-23T19:33:44;96883.94;;;13.30;65.55
48800;BME280;34611;47.964;7.982;2023-05-23T19:40:45;96895.19;;;13.31;65.75
48800;BME280;34611;47.964;7.982;2023-05-23T19:47:45;96893.56;;;13.30;65.66
48800;BME280;34611;47.964;7.982;2023-05-23T19:54:45;96910.06;;;13.30;65.68
48800;BME280;34611;47.964;7.982;2023-05-23T20:01:45;96914.47;;;13.30;65.76
48800;BME280;34611;47.964;7.982;2023-05-23T20:08:46;96920.50;;;13.30;65.59
48800;BME280;34611;47.964;7.982;2023-05-23T20:15:46;96926.53;;;13.31;65.63
48800;BME280;34611;47.964;7.982;2023-05-23T20:22:46;96936.16;;;13.30;65.71
48800;BME280;34611;47.964;7.982;2023-05-23T20:29:47;96939.75;;;13.29;65.65
48800;BME280;34611;47.964;7.982;2023-05-23T20:36:47;96940.44;;;13.31;65.82
48800;BME280;34611;47.964;7.982;2023-05-23T20:43:47;96947.41;;;13.31;65.75
48800;BME280;34611;47.964;7.982;2023-05-23T20:50:48;96952.81;;;13.29;65.83
48800;BME280;34611;47.964;7.982;2023-05-23T20:57:48;96959.66;;;13.30;65.81
48800;BME280;34611;47.964;7.982;2023-05-23T21:04:48;96956.09;;;13.31;65.62
48800;BME280;34611;47.964;7.982;2023-05-23T21:11:49;96959.66;;;13.30;65.67
48800;BME280;34611;47.964;7.982;2023-05-23T21:18:49;96960.63;;;13.29;65.86
48800;BME280;34611;47.964;7.982;2023-05-23T21:25:49;96975.31;;;13.30;65.80
48800;BME280;34611;47.964;7.982;2023-05-23T21:32:49;96968.31;;;13.31;65.87
48800;BME280;34611;47.964;7.982;2023-05-23T21:39:51;96978.75;;;13.31;65.81
48800;BME280;34611;47.964;7.982;2023-05-23T21:46:51;96977.94;;;13.30;65.77
48800;BME280;34611;47.964;7.982;2023-05-23T21:53:51;96972.72;;;13.30;65.90
48800;BME280;34611;47.964;7.982;2023-05-23T22:00:52;96977.94;;;13.30;65.75
48800;BME280;34611;47.964;7.982;2023-05-23T22:07:52;96976.13;;;13.31;65.68
48800;BME280;34611;47.964;7.982;2023-05-23T22:14:52;96980.53;;;13.30;65.77
48800;BME280;34611;47.964;7.982;2023-05-23T22:21:54;96984.81;;;13.31;65.88
48800;BME280;34611;47.964;7.982;2023-05-23T22:28:54;96976.13;;;13.31;65.73
48800;BME280;34611;47.964;7.982;2023-05-23T22:35:55;96979.72;;;13.30;65.92
48800;BME280;34611;47.964;7.982;2023-05-23T22:42:55;96989.19;;;13.31;65.83
48800;BME280;34611;47.964;7.982;2023-05-23T22:49:55;96985.75;;;13.30;65.79
48800;BME280;34611;47.964;7.982;2023-05-23T22:56:58;96973.53;;;13.31;65.94
48800;BME280;34611;47.964;7.982;2023-05-23T23:03:58;96978.75;;;13.31;65.93
48800;BME280;34611;47.964;7.982;2023-05-23T23:10:58;96971.75;;;13.31;65.66
48800;BME280;34611;47.964;7.982;2023-05-23T23:17:58;96966.66;;;13.30;65.94
48800;BME280;34611;47.964;7.982;2023-05-23T23:25:01;96952.63;;;13.31;65.99
48800;BME280;34611;47.964;7.982;2023-05-23T23:32:01;96941.38;;;13.30;65.84
48800;BME280;34611;47.964;7.982;2023-05-23T23:39:02;96936.97;;;13.31;65.94
48800;BME280;34611;47.964;7.982;2023-05-23T23:46:02;96932.59;;;13.31;65.92
48800;BME280;34611;47.964;7.982;2023-05-23T23:53:03;96932.59;;;13.31;65.78
